createdAt,value
2018-09-24T00:00:58.240Z,0.00
2018-09-24T00:01:58.246Z,0.00
2018-09-24T00:02:59.042Z,0.00
2018-09-24T00:03:58.254Z,0.00
2018-09-24T00:04:58.261Z,0.00
2018-09-24T00:05:58.249Z,0.00
2018-09-24T00:06:58.250Z,0.00
2018-09-24T00:07:58.226Z,0.00
2018-09-24T00:08:58.221Z,0.00
2018-09-24T00:09:58.230Z,0.00
2018-09-24T00:10:58.251Z,0.00
2018-09-24T00:11:58.248Z,0.00
2018-09-24T00:12:58.227Z,0.00
2018-09-24T00:13:58.235Z,0.00
2018-09-24T00:14:58.251Z,0.00
2018-09-24T00:15:58.272Z,0.00
2018-09-24T00:16:58.251Z,0.00
2018-09-24T00:17:58.243Z,0.00
2018-09-24T00:18:58.230Z,0.00
2018-09-24T00:19:58.241Z,0.00
2018-09-24T00:20:58.227Z,0.00
2018-09-24T00:21:58.212Z,0.00
2018-09-24T00:22:58.224Z,0.00
2018-09-24T00:23:58.232Z,0.00
2018-09-24T00:24:58.230Z,0.00
2018-09-24T00:25:58.230Z,0.00
2018-09-24T00:26:58.227Z,0.00
2018-09-24T00:27:58.229Z,0.00
2018-09-24T00:28:58.222Z,0.00
2018-09-24T00:29:58.231Z,0.00
2018-09-24T00:30:58.254Z,0.00
2018-09-24T00:31:58.239Z,0.00
2018-09-24T00:32:58.215Z,0.00
2018-09-24T00:33:58.271Z,0.00
2018-09-24T00:34:58.222Z,0.00
2018-09-24T00:35:58.229Z,0.00
2018-09-24T00:36:58.249Z,0.00
2018-09-24T00:37:58.248Z,0.00
2018-09-24T00:38:58.222Z,0.00
2018-09-24T00:39:58.333Z,0.00
2018-09-24T00:40:58.250Z,0.00
2018-09-24T00:41:58.268Z,0.00
2018-09-24T00:42:58.223Z,0.00
2018-09-24T00:43:58.225Z,0.00
2018-09-24T00:44:58.229Z,0.00
2018-09-24T00:45:58.217Z,0.00
2018-09-24T00:46:58.224Z,0.00
2018-09-24T00:47:58.221Z,0.00
2018-09-24T00:48:58.256Z,0.00
2018-09-24T00:49:58.265Z,0.00
2018-09-24T00:50:58.265Z,0.00
2018-09-24T00:51:58.301Z,0.00
2018-09-24T00:52:58.236Z,0.00
2018-09-24T00:53:58.230Z,0.00
2018-09-24T00:54:58.241Z,0.00
2018-09-24T00:55:58.242Z,0.00
2018-09-24T00:56:58.236Z,0.00
2018-09-24T00:57:58.225Z,0.00
2018-09-24T00:58:58.232Z,0.00
2018-09-24T00:59:58.244Z,0.00
2018-09-24T01:00:58.271Z,0.00
2018-09-24T01:01:58.311Z,0.00
2018-09-24T01:02:58.256Z,0.00
2018-09-24T01:03:58.377Z,0.00
2018-09-24T01:04:58.272Z,0.00
2018-09-24T01:05:58.247Z,0.00
2018-09-24T01:06:58.308Z,0.00
2018-09-24T01:07:58.246Z,0.00
2018-09-24T01:08:58.241Z,0.00
2018-09-24T01:09:58.265Z,0.00
2018-09-24T01:10:58.270Z,0.00
2018-09-24T01:11:58.241Z,0.00
2018-09-24T01:12:58.257Z,0.00
2018-09-24T01:13:58.324Z,0.00
2018-09-24T01:14:58.285Z,0.00
2018-09-24T01:15:58.369Z,0.00
2018-09-24T01:16:58.371Z,0.00
2018-09-24T01:17:58.271Z,0.00
2018-09-24T01:18:58.242Z,0.00
2018-09-24T01:19:58.234Z,0.00
2018-09-24T01:20:58.249Z,0.00
2018-09-24T01:21:58.298Z,0.00
2018-09-24T01:22:58.252Z,0.00
2018-09-24T01:23:58.312Z,0.00
2018-09-24T01:24:58.253Z,0.00
2018-09-24T01:25:58.322Z,0.00
2018-09-24T01:26:58.264Z,0.00
2018-09-24T01:27:58.242Z,0.00
2018-09-24T01:28:58.234Z,0.00
2018-09-24T01:42:38.327Z,0.00
2018-09-24T01:43:17.332Z,0.00
2018-09-24T01:44:17.348Z,0.00
2018-09-24T01:45:19.683Z,0.00
2018-09-24T01:46:26.658Z,0.00
2018-09-24T01:48:18.652Z,0.00
2018-09-24T01:49:22.133Z,0.00
2018-09-24T01:50:25.133Z,0.00
2018-09-24T01:51:18.652Z,0.00
2018-09-24T01:52:21.643Z,0.00
2018-09-24T01:53:19.145Z,0.00
2018-09-24T01:54:19.216Z,0.00
2018-09-24T01:55:23.651Z,0.00
2018-09-24T01:56:21.135Z,0.00
2018-09-24T01:57:21.150Z,0.00
2018-09-24T01:58:20.637Z,0.00
2018-09-24T01:59:22.141Z,0.00
2018-09-24T02:00:21.166Z,0.00
2018-09-24T02:01:18.656Z,0.00
2018-09-24T02:02:19.658Z,0.00
2018-09-24T02:03:22.647Z,0.00
2018-09-24T02:04:19.147Z,0.00
2018-09-24T02:05:19.659Z,0.00
2018-09-24T02:06:17.328Z,0.00
2018-09-24T02:07:18.193Z,0.00
2018-09-24T02:08:21.143Z,0.00
2018-09-24T02:09:17.383Z,0.00
2018-09-24T02:10:19.640Z,0.00
2018-09-24T02:11:17.348Z,0.00
2018-09-24T02:12:18.656Z,0.00
2018-09-24T02:13:17.392Z,0.00
2018-09-24T02:14:17.318Z,0.00
2018-09-24T02:15:17.365Z,0.00
2018-09-24T02:16:17.365Z,0.00
2018-09-24T02:17:17.347Z,0.00
2018-09-24T02:18:17.365Z,0.00
2018-09-24T02:19:17.364Z,0.00
2018-09-24T02:20:17.315Z,0.00
2018-09-24T02:21:17.329Z,0.00
2018-09-24T02:22:18.140Z,0.00
2018-09-24T02:23:17.326Z,0.00
2018-09-24T02:24:17.364Z,0.00
2018-09-24T02:25:17.325Z,0.00
2018-09-24T02:26:17.356Z,0.00
2018-09-24T02:27:17.366Z,0.00
2018-09-24T02:28:17.354Z,0.00
2018-09-24T02:29:17.365Z,0.00
2018-09-24T02:30:17.331Z,0.00
2018-09-24T02:31:17.370Z,0.00
2018-09-24T02:32:17.364Z,0.00
2018-09-24T02:33:17.356Z,0.00
2018-09-24T02:34:17.333Z,0.00
2018-09-24T02:35:17.412Z,0.00
2018-09-24T02:36:17.330Z,0.00
2018-09-24T02:37:17.335Z,0.00
2018-09-24T02:38:17.383Z,0.00
2018-09-24T02:39:17.352Z,0.00
2018-09-24T02:40:17.392Z,0.00
2018-09-24T02:41:17.330Z,0.00
2018-09-24T02:42:17.357Z,0.00
2018-09-24T02:43:17.320Z,0.00
2018-09-24T02:44:17.383Z,0.00
2018-09-24T02:45:17.457Z,0.00
2018-09-24T02:46:17.338Z,0.00
2018-09-24T02:47:17.397Z,0.00
2018-09-24T02:48:17.319Z,0.00
2018-09-24T02:49:17.358Z,0.00
2018-09-24T02:50:17.322Z,0.00
2018-09-24T02:51:17.370Z,0.00
2018-09-24T02:52:17.338Z,0.00
2018-09-24T02:53:17.333Z,0.00
2018-09-24T02:54:17.343Z,0.00
2018-09-24T02:55:17.343Z,0.00
2018-09-24T02:56:17.329Z,0.00
2018-09-24T02:57:17.337Z,0.00
2018-09-24T02:58:17.339Z,0.00
2018-09-24T02:59:17.332Z,0.00
2018-09-24T03:00:17.326Z,0.00
2018-09-24T03:01:17.395Z,0.00
2018-09-24T03:02:17.393Z,0.00
2018-09-24T03:03:17.349Z,0.00
2018-09-24T03:04:17.328Z,0.00
2018-09-24T03:05:17.328Z,0.00
2018-09-24T03:06:17.330Z,0.00
2018-09-24T03:07:17.341Z,0.00
2018-09-24T03:08:17.328Z,0.00
2018-09-24T03:09:17.344Z,0.00
2018-09-24T03:10:17.350Z,0.00
2018-09-24T03:11:17.318Z,0.00
2018-09-24T03:12:17.328Z,0.00
2018-09-24T03:13:17.323Z,0.00
2018-09-24T03:14:17.340Z,0.00
2018-09-24T03:15:17.322Z,0.00
2018-09-24T03:16:17.330Z,0.00
2018-09-24T03:17:17.334Z,0.00
2018-09-24T03:18:17.321Z,0.00
2018-09-24T03:19:17.315Z,0.00
2018-09-24T03:20:17.326Z,0.00
2018-09-24T03:21:17.319Z,0.00
2018-09-24T03:22:17.332Z,0.00
2018-09-24T03:23:17.341Z,0.00
2018-09-24T03:24:17.326Z,0.00
2018-09-24T03:25:17.318Z,0.00
2018-09-24T03:26:17.364Z,0.00
2018-09-24T03:27:17.373Z,0.00
2018-09-24T03:28:17.327Z,0.00
2018-09-24T03:29:17.376Z,0.00
2018-09-24T03:30:17.333Z,0.00
2018-09-24T03:31:17.340Z,0.00
2018-09-24T03:32:17.343Z,0.00
2018-09-24T03:33:17.323Z,0.00
2018-09-24T03:34:17.329Z,0.00
2018-09-24T03:35:17.329Z,0.00
2018-09-24T03:36:17.321Z,0.00
2018-09-24T03:37:17.328Z,0.00
2018-09-24T03:38:17.341Z,0.00
2018-09-24T03:39:17.312Z,0.00
2018-09-24T03:40:17.342Z,0.00
2018-09-24T03:41:17.336Z,0.00
2018-09-24T03:42:17.325Z,0.00
2018-09-24T03:43:17.319Z,0.00
2018-09-24T03:44:17.331Z,0.00
2018-09-24T03:45:17.318Z,0.00
2018-09-24T03:46:17.317Z,0.00
2018-09-24T03:47:17.360Z,0.00
2018-09-24T03:48:17.325Z,0.00
2018-09-24T03:49:17.321Z,0.00
2018-09-24T03:50:17.315Z,0.00
2018-09-24T03:51:17.353Z,0.00
2018-09-24T03:52:17.327Z,0.00
2018-09-24T03:53:17.328Z,0.00
2018-09-24T03:54:17.337Z,0.00
2018-09-24T03:55:17.344Z,0.00
2018-09-24T03:56:17.341Z,0.00
2018-09-24T03:57:17.335Z,0.00
2018-09-24T03:58:17.319Z,0.00
2018-09-24T03:59:17.319Z,0.00
2018-09-24T04:00:17.334Z,0.00
2018-09-24T04:01:17.311Z,0.00
2018-09-24T04:02:17.321Z,0.00
2018-09-24T04:03:17.518Z,0.00
2018-09-24T04:04:17.308Z,0.00
2018-09-24T04:05:17.321Z,0.00
2018-09-24T04:06:17.343Z,0.00
2018-09-24T04:07:17.319Z,0.00
2018-09-24T04:08:17.334Z,0.00
2018-09-24T04:09:17.391Z,0.00
2018-09-24T04:10:17.320Z,0.00
2018-09-24T04:11:17.330Z,0.00
2018-09-24T04:12:17.322Z,0.00
2018-09-24T04:13:17.327Z,0.00
2018-09-24T04:14:17.305Z,0.00
2018-09-24T04:15:17.315Z,0.00
2018-09-24T04:16:17.345Z,0.00
2018-09-24T04:17:17.376Z,0.00
2018-09-24T04:18:17.334Z,0.00
2018-09-24T04:19:17.368Z,0.00
2018-09-24T04:20:17.326Z,0.00
2018-09-24T04:21:17.327Z,0.00
2018-09-24T04:22:17.333Z,0.00
2018-09-24T04:23:17.318Z,0.00
2018-09-24T04:24:17.350Z,0.00
2018-09-24T04:25:17.312Z,0.00
2018-09-24T04:26:17.399Z,0.00
2018-09-24T04:27:17.328Z,0.00
2018-09-24T04:28:17.331Z,0.00
2018-09-24T04:29:17.322Z,0.00
2018-09-24T04:30:17.324Z,0.00
2018-09-24T04:31:17.338Z,0.00
2018-09-24T04:32:17.339Z,0.00
2018-09-24T04:33:17.329Z,0.00
2018-09-24T04:34:17.322Z,0.00
2018-09-24T04:35:17.323Z,0.00
2018-09-24T04:36:17.372Z,0.00
2018-09-24T04:37:17.304Z,0.00
2018-09-24T04:38:17.349Z,0.00
2018-09-24T04:39:17.320Z,0.00
2018-09-24T04:40:17.326Z,0.00
2018-09-24T04:41:17.365Z,0.00
2018-09-24T04:42:17.335Z,0.00
2018-09-24T04:43:17.343Z,0.00
2018-09-24T04:44:17.323Z,0.00
2018-09-24T04:45:17.299Z,0.00
2018-09-24T04:46:17.326Z,0.00
2018-09-24T04:47:17.306Z,0.00
2018-09-24T04:48:17.364Z,0.00
2018-09-24T04:49:17.377Z,0.00
2018-09-24T04:50:17.325Z,0.00
2018-09-24T04:51:17.296Z,0.00
2018-09-24T04:52:17.314Z,0.00
2018-09-24T04:53:17.318Z,0.00
2018-09-24T04:54:17.319Z,0.00
2018-09-24T04:55:17.304Z,0.00
2018-09-24T04:56:17.296Z,0.00
2018-09-24T04:57:17.309Z,0.00
2018-09-24T04:58:17.312Z,0.00
2018-09-24T04:59:17.314Z,0.00
2018-09-24T05:00:17.304Z,0.00
2018-09-24T05:01:17.295Z,0.00
2018-09-24T05:02:17.330Z,0.00
2018-09-24T05:03:17.306Z,0.00
2018-09-24T05:04:17.307Z,0.00
2018-09-24T05:05:17.307Z,0.00
2018-09-24T05:06:17.305Z,0.00
2018-09-24T05:07:17.307Z,0.00
2018-09-24T05:08:17.314Z,0.00
2018-09-24T05:09:17.311Z,0.00
2018-09-24T05:10:17.319Z,0.00
2018-09-24T05:11:17.306Z,0.00
2018-09-24T05:12:17.306Z,0.00
2018-09-24T05:13:17.309Z,0.00
2018-09-24T05:14:17.295Z,0.00
2018-09-24T05:15:17.303Z,0.00
2018-09-24T05:16:17.381Z,0.00
2018-09-24T05:17:17.293Z,5.63
2018-09-24T05:18:17.326Z,5.63
2018-09-24T05:19:17.325Z,5.63
2018-09-24T05:20:17.348Z,5.63
2018-09-24T05:21:17.301Z,5.63
2018-09-24T05:22:17.296Z,5.63
2018-09-24T05:23:17.290Z,5.63
2018-09-24T05:24:17.295Z,5.63
2018-09-24T05:25:17.320Z,5.63
2018-09-24T05:26:17.306Z,11.25
2018-09-24T05:27:17.329Z,11.25
2018-09-24T05:28:17.380Z,11.25
2018-09-24T05:29:17.311Z,11.25
2018-09-24T05:30:17.329Z,11.25
2018-09-24T05:31:17.318Z,11.25
2018-09-24T05:32:17.338Z,16.88
2018-09-24T05:33:17.463Z,16.88
2018-09-24T05:34:17.379Z,16.88
2018-09-24T05:35:17.282Z,16.88
2018-09-24T05:36:17.312Z,16.88
2018-09-24T05:37:17.298Z,22.50
2018-09-24T05:38:17.279Z,22.50
2018-09-24T05:39:17.304Z,22.50
2018-09-24T05:40:17.295Z,22.50
2018-09-24T05:41:17.321Z,28.13
2018-09-24T05:42:17.287Z,28.13
2018-09-24T05:43:17.309Z,28.13
2018-09-24T05:44:17.299Z,28.13
2018-09-24T05:45:17.300Z,28.13
2018-09-24T05:46:17.287Z,33.75
2018-09-24T05:47:17.279Z,33.75
2018-09-24T05:48:17.327Z,33.75
2018-09-24T05:49:17.319Z,33.75
2018-09-24T05:50:17.281Z,39.38
2018-09-24T05:51:17.300Z,39.38
2018-09-24T05:52:17.293Z,39.38
2018-09-24T05:53:17.293Z,39.38
2018-09-24T05:54:17.402Z,39.38
2018-09-24T05:55:17.285Z,39.38
2018-09-24T05:56:17.277Z,45.00
2018-09-24T05:57:17.306Z,45.00
2018-09-24T05:58:17.295Z,45.00
2018-09-24T05:59:17.292Z,45.00
2018-09-24T06:00:17.287Z,45.00
2018-09-24T06:01:17.297Z,45.00
2018-09-24T06:02:17.271Z,45.00
2018-09-24T06:03:17.282Z,50.63
2018-09-24T06:04:17.285Z,50.63
2018-09-24T06:05:17.303Z,50.63
2018-09-24T06:06:17.281Z,50.63
2018-09-24T06:07:17.295Z,50.63
2018-09-24T06:08:17.298Z,50.63
2018-09-24T06:09:17.270Z,45.00
2018-09-24T06:10:17.281Z,50.63
2018-09-24T06:11:17.285Z,50.63
2018-09-24T06:12:20.301Z,56.25
2018-09-24T06:13:17.441Z,61.88
2018-09-24T06:14:23.023Z,61.88
2018-09-24T06:15:17.273Z,61.88
2018-09-24T06:16:17.314Z,61.88
2018-09-24T06:17:17.302Z,61.88
2018-09-24T06:18:17.276Z,67.50
2018-09-24T06:19:17.292Z,67.50
2018-09-24T06:20:17.281Z,67.50
2018-09-24T06:21:17.272Z,73.13
2018-09-24T06:22:18.188Z,73.13
2018-09-24T06:23:17.308Z,73.13
2018-09-24T06:25:18.707Z,95.63
2018-09-24T06:26:17.501Z,95.63
2018-09-24T06:27:17.305Z,101.25
2018-09-24T06:28:17.314Z,95.63
2018-09-24T06:29:17.292Z,84.38
2018-09-24T06:30:17.300Z,84.38
2018-09-24T06:31:17.318Z,84.38
2018-09-24T06:32:17.367Z,84.38
2018-09-24T06:33:17.331Z,84.38
2018-09-24T06:34:17.294Z,90.00
2018-09-24T06:35:17.292Z,90.00
2018-09-24T06:36:17.289Z,90.00
2018-09-24T06:37:17.288Z,90.00
2018-09-24T06:38:17.331Z,90.00
2018-09-24T06:39:17.296Z,90.00
2018-09-24T06:40:17.324Z,90.00
2018-09-24T06:41:17.413Z,90.00
2018-09-24T06:42:17.293Z,95.63
2018-09-24T06:43:17.302Z,95.63
2018-09-24T06:44:17.281Z,95.63
2018-09-24T06:45:17.458Z,95.63
2018-09-24T06:46:17.289Z,101.25
2018-09-24T06:47:17.290Z,101.25
2018-09-24T06:48:17.298Z,106.88
2018-09-24T06:49:17.308Z,106.88
2018-09-24T06:50:17.297Z,106.88
2018-09-24T06:51:17.288Z,106.88
2018-09-24T06:52:17.289Z,118.13
2018-09-24T06:53:17.289Z,146.25
2018-09-24T06:54:17.298Z,151.88
2018-09-24T06:55:17.293Z,191.25
2018-09-24T06:56:17.288Z,241.88
2018-09-24T06:57:17.309Z,281.25
2018-09-24T06:58:17.289Z,292.50
2018-09-24T06:59:17.306Z,298.13
2018-09-24T07:00:17.463Z,298.13
2018-09-24T07:01:17.285Z,309.38
2018-09-24T07:02:17.397Z,315.00
2018-09-24T07:03:17.344Z,320.63
2018-09-24T07:04:17.394Z,326.25
2018-09-24T07:05:17.417Z,326.25
2018-09-24T07:06:17.307Z,331.88
2018-09-24T07:07:17.324Z,337.50
2018-09-24T07:08:17.299Z,343.13
2018-09-24T07:09:17.473Z,348.75
2018-09-24T07:10:17.395Z,354.38
2018-09-24T07:11:17.330Z,360.00
2018-09-24T07:12:17.345Z,365.63
2018-09-24T07:13:18.494Z,371.25
2018-09-24T07:14:17.308Z,371.25
2018-09-24T07:15:17.837Z,371.25
2018-09-24T07:16:17.324Z,376.88
2018-09-24T07:17:17.327Z,382.50
2018-09-24T07:18:18.284Z,382.50
2018-09-24T07:19:17.985Z,388.13
2018-09-24T07:20:17.322Z,399.38
2018-09-24T07:21:17.364Z,393.75
2018-09-24T07:22:17.342Z,399.38
2018-09-24T07:23:17.381Z,405.00
2018-09-24T07:24:17.364Z,410.63
2018-09-24T07:25:17.421Z,416.25
2018-09-24T07:26:17.335Z,421.88
2018-09-24T07:27:17.380Z,421.88
2018-09-24T07:28:17.353Z,427.50
2018-09-24T07:29:17.348Z,433.13
2018-09-24T07:30:17.343Z,438.75
2018-09-24T07:31:17.367Z,438.75
2018-09-24T07:32:17.392Z,450.00
2018-09-24T07:33:17.421Z,455.63
2018-09-24T07:34:22.949Z,455.63
2018-09-24T07:35:17.416Z,455.63
2018-09-24T07:36:17.400Z,461.25
2018-09-24T07:37:17.383Z,466.88
2018-09-24T07:38:17.396Z,472.50
2018-09-24T07:39:17.410Z,472.50
2018-09-24T07:40:17.429Z,472.50
2018-09-24T07:41:17.392Z,483.75
2018-09-24T07:42:17.404Z,483.75
2018-09-24T07:43:17.479Z,489.38
2018-09-24T07:44:17.429Z,495.00
2018-09-24T07:45:17.479Z,500.63
2018-09-24T07:46:17.413Z,506.25
2018-09-24T07:47:17.442Z,511.88
2018-09-24T07:48:17.427Z,511.88
2018-09-24T07:49:17.424Z,523.13
2018-09-24T07:50:17.494Z,528.75
2018-09-24T07:51:17.484Z,534.38
2018-09-24T07:52:17.424Z,534.38
2018-09-24T07:53:17.425Z,534.38
2018-09-24T07:54:17.527Z,545.63
2018-09-24T07:55:17.660Z,551.25
2018-09-24T07:56:17.724Z,551.25
2018-09-24T07:57:17.548Z,562.50
2018-09-24T07:58:17.615Z,568.13
2018-09-24T07:59:17.518Z,568.13
2018-09-24T08:00:17.489Z,568.13
2018-09-24T08:01:17.471Z,568.13
2018-09-24T08:02:17.544Z,573.75
2018-09-24T08:03:17.488Z,579.38
2018-09-24T08:04:17.530Z,579.38
2018-09-24T08:05:17.515Z,585.00
2018-09-24T08:06:17.500Z,590.63
2018-09-24T08:07:17.566Z,585.00
2018-09-24T08:08:18.362Z,596.25
2018-09-24T08:09:17.534Z,607.50
2018-09-24T08:10:17.645Z,601.88
2018-09-24T08:11:17.659Z,613.13
2018-09-24T08:12:17.570Z,607.50
2018-09-24T08:13:17.716Z,607.50
2018-09-24T08:14:17.571Z,613.13
2018-09-24T08:15:17.574Z,618.75
2018-09-24T08:16:17.676Z,618.75
2018-09-24T08:17:17.603Z,618.75
2018-09-24T08:18:17.607Z,624.38
2018-09-24T08:19:17.605Z,630.00
2018-09-24T08:20:17.843Z,635.63
2018-09-24T08:21:17.602Z,635.63
2018-09-24T08:22:17.665Z,646.88
2018-09-24T08:23:17.626Z,646.88
2018-09-24T08:24:17.628Z,652.50
2018-09-24T08:25:21.997Z,658.13
2018-09-24T08:26:17.641Z,658.13
2018-09-24T08:27:17.663Z,658.13
2018-09-24T08:28:17.697Z,663.75
2018-09-24T08:29:17.704Z,669.38
2018-09-24T08:30:17.789Z,675.00
2018-09-24T08:31:17.682Z,675.00
2018-09-24T08:32:17.760Z,675.00
2018-09-24T08:33:17.910Z,697.50
2018-09-24T08:34:17.780Z,703.13
2018-09-24T08:35:17.709Z,714.38
2018-09-24T08:36:17.837Z,703.13
2018-09-24T08:37:17.698Z,708.75
2018-09-24T08:38:17.893Z,708.75
2018-09-24T08:39:17.756Z,714.38
2018-09-24T08:40:17.764Z,714.38
2018-09-24T08:41:17.930Z,714.38
2018-09-24T08:42:17.762Z,725.63
2018-09-24T08:43:17.753Z,725.63
2018-09-24T08:44:17.753Z,731.25
2018-09-24T08:45:17.796Z,736.88
2018-09-24T08:46:17.789Z,736.88
2018-09-24T08:47:17.797Z,742.50
2018-09-24T08:48:17.791Z,759.38
2018-09-24T08:49:17.841Z,759.38
2018-09-24T08:50:17.851Z,759.38
2018-09-24T08:51:17.900Z,759.38
2018-09-24T08:52:17.971Z,770.63
2018-09-24T08:53:17.931Z,765.00
2018-09-24T08:54:17.855Z,770.63
2018-09-24T08:55:18.000Z,770.63
2018-09-24T08:56:17.954Z,776.25
2018-09-24T08:57:18.456Z,781.88
2018-09-24T08:58:17.897Z,787.50
2018-09-24T08:59:17.884Z,793.13
2018-09-24T09:00:17.867Z,810.00
2018-09-24T09:01:18.922Z,815.63
2018-09-24T09:02:17.938Z,821.25
2018-09-24T09:03:17.899Z,815.63
2018-09-24T09:04:17.919Z,821.25
2018-09-24T09:05:17.957Z,843.75
2018-09-24T09:06:17.941Z,843.75
2018-09-24T09:07:17.962Z,860.63
2018-09-24T09:08:18.062Z,871.88
2018-09-24T09:09:17.999Z,877.50
2018-09-24T09:10:18.011Z,883.13
2018-09-24T09:11:19.120Z,888.75
2018-09-24T09:12:18.021Z,894.38
2018-09-24T09:13:19.806Z,905.63
2018-09-24T09:14:19.982Z,928.13
2018-09-24T09:15:18.063Z,916.88
2018-09-24T09:16:18.448Z,933.75
2018-09-24T09:17:18.043Z,928.13
2018-09-24T09:18:20.793Z,939.38
2018-09-24T09:19:18.044Z,950.63
2018-09-24T09:20:18.228Z,961.88
2018-09-24T09:21:18.090Z,973.13
2018-09-24T09:22:18.216Z,978.75
2018-09-24T09:23:18.113Z,990.00
2018-09-24T09:24:18.164Z,1006.88
2018-09-24T09:25:18.185Z,1018.13
2018-09-24T09:26:18.137Z,1035.00
2018-09-24T09:27:18.335Z,1001.25
2018-09-24T09:28:18.195Z,1091.25
2018-09-24T09:29:18.211Z,1125.00
2018-09-24T09:30:23.256Z,1136.25
2018-09-24T09:31:18.149Z,1175.63
2018-09-24T09:32:18.170Z,1226.25
2018-09-24T09:33:18.552Z,1293.75
2018-09-24T09:34:18.643Z,1378.13
2018-09-24T09:35:18.203Z,253.13
2018-09-24T09:36:18.221Z,1513.13
2018-09-24T09:37:18.224Z,1631.25
2018-09-24T09:38:18.291Z,1704.38
2018-09-24T09:39:18.403Z,1929.38
2018-09-24T09:40:18.257Z,2137.50
2018-09-24T09:41:18.297Z,663.75
2018-09-24T09:42:18.251Z,2598.75
2018-09-24T09:43:18.255Z,2857.50
2018-09-24T09:44:18.270Z,3307.50
2018-09-24T09:45:18.309Z,1800.00
2018-09-24T09:46:18.279Z,1833.75
2018-09-24T09:47:18.330Z,1192.50
2018-09-24T09:48:18.356Z,4066.88
2018-09-24T09:49:18.474Z,3853.13
2018-09-24T09:50:18.334Z,3892.50
2018-09-24T09:51:18.341Z,3341.25
2018-09-24T09:52:18.451Z,3397.50
2018-09-24T09:53:18.359Z,2626.88
2018-09-24T09:54:18.381Z,2958.75
2018-09-24T09:55:18.429Z,360.00
2018-09-24T09:56:18.362Z,2345.63
2018-09-24T09:57:18.422Z,2632.50
2018-09-24T09:58:18.436Z,1839.38
2018-09-24T09:59:18.506Z,309.38
2018-09-24T10:00:18.552Z,528.75
2018-09-24T10:01:18.490Z,894.38
2018-09-24T10:02:18.455Z,686.25
2018-09-24T10:03:18.488Z,365.63
2018-09-24T10:04:18.449Z,196.88
2018-09-24T10:05:19.495Z,157.50
2018-09-24T10:06:18.545Z,185.63
2018-09-24T10:07:18.519Z,275.63
2018-09-24T10:08:18.642Z,511.88
2018-09-24T10:09:18.789Z,517.50
2018-09-24T10:10:18.503Z,1192.50
2018-09-24T10:11:18.579Z,450.00
2018-09-24T10:12:18.519Z,1265.63
2018-09-24T10:13:18.541Z,1558.13
2018-09-24T10:14:18.534Z,1080.00
2018-09-24T10:15:18.560Z,1113.75
2018-09-24T10:16:18.528Z,995.63
2018-09-24T10:17:18.543Z,1580.63
2018-09-24T10:18:18.566Z,1597.50
2018-09-24T10:19:18.551Z,1490.63
2018-09-24T10:20:18.554Z,1468.13
2018-09-24T10:21:18.573Z,1456.88
2018-09-24T10:22:18.581Z,1434.38
2018-09-24T10:23:18.584Z,1451.25
2018-09-24T10:24:18.620Z,1518.75
2018-09-24T10:25:18.715Z,1530.00
2018-09-24T10:26:18.620Z,1518.75
2018-09-24T10:27:18.630Z,1591.88
2018-09-24T10:28:18.631Z,511.88
2018-09-24T10:29:18.668Z,821.25
2018-09-24T10:30:18.647Z,945.00
2018-09-24T10:31:18.661Z,1625.63
2018-09-24T10:32:18.669Z,1648.13
2018-09-24T10:33:18.712Z,1665.00
2018-09-24T10:34:18.691Z,1608.75
2018-09-24T10:35:18.709Z,196.88
2018-09-24T10:36:18.698Z,253.13
2018-09-24T10:37:18.719Z,1681.88
2018-09-24T10:38:18.723Z,663.75
2018-09-24T10:39:18.729Z,1715.63
2018-09-24T10:40:18.727Z,781.88
2018-09-24T10:41:18.748Z,1378.13
2018-09-24T10:42:18.792Z,247.50
2018-09-24T10:43:18.783Z,219.38
2018-09-24T10:44:18.782Z,225.00
2018-09-24T10:45:18.898Z,270.00
2018-09-24T10:46:18.798Z,500.63
2018-09-24T10:47:24.042Z,275.63
2018-09-24T10:48:18.808Z,241.88
2018-09-24T10:49:18.887Z,196.88
2018-09-24T10:50:18.838Z,163.13
2018-09-24T10:51:18.852Z,157.50
2018-09-24T10:52:18.842Z,163.13
2018-09-24T10:53:18.852Z,146.25
2018-09-24T10:54:18.869Z,174.38
2018-09-24T10:55:18.883Z,225.00
2018-09-24T10:56:18.894Z,264.38
2018-09-24T10:57:18.893Z,461.25
2018-09-24T10:58:21.024Z,292.50
2018-09-24T10:59:19.000Z,281.25
2018-09-24T11:00:18.935Z,343.13
2018-09-24T11:01:19.500Z,331.88
2018-09-24T11:02:18.906Z,286.88
2018-09-24T11:03:18.918Z,213.75
2018-09-24T11:04:18.936Z,168.75
2018-09-24T11:05:18.950Z,146.25
2018-09-24T11:06:18.975Z,112.50
2018-09-24T11:07:18.927Z,101.25
2018-09-24T11:08:18.963Z,157.50
2018-09-24T11:09:18.967Z,1018.13
2018-09-24T11:10:19.019Z,1046.25
2018-09-24T11:11:18.991Z,978.75
2018-09-24T11:12:19.009Z,967.50
2018-09-24T11:13:18.957Z,961.88
2018-09-24T11:14:18.985Z,945.00
2018-09-24T11:15:18.978Z,905.63
2018-09-24T11:16:19.104Z,871.88
2018-09-24T11:17:19.238Z,855.00
2018-09-24T11:18:19.033Z,849.38
2018-09-24T11:19:19.010Z,838.13
2018-09-24T11:20:19.012Z,810.00
2018-09-24T11:21:19.026Z,798.75
2018-09-24T11:22:19.076Z,736.88
2018-09-24T11:23:19.044Z,624.38
2018-09-24T11:24:19.048Z,365.63
2018-09-24T11:25:19.053Z,202.50
2018-09-24T11:27:19.040Z,208.13
2018-09-24T11:28:19.043Z,202.50
2018-09-24T11:29:19.100Z,236.25
2018-09-24T11:30:19.046Z,303.75
2018-09-24T11:31:19.047Z,303.75
2018-09-24T11:32:20.245Z,281.25
2018-09-24T11:33:19.072Z,225.00
2018-09-24T11:34:19.078Z,180.00
2018-09-24T11:35:19.068Z,168.75
2018-09-24T11:36:19.091Z,185.63
2018-09-24T11:37:19.092Z,258.75
2018-09-24T11:38:19.076Z,213.75
2018-09-24T11:39:19.319Z,174.38
2018-09-24T11:40:19.091Z,174.38
2018-09-24T11:41:19.114Z,247.50
2018-09-24T11:42:19.093Z,275.63
2018-09-24T11:43:19.117Z,213.75
2018-09-24T11:44:19.207Z,185.63
2018-09-24T11:45:19.119Z,157.50
2018-09-24T11:46:19.144Z,185.63
2018-09-24T11:47:19.126Z,281.25
2018-09-24T11:48:19.198Z,309.38
2018-09-24T11:49:19.135Z,258.75
2018-09-24T11:50:19.144Z,281.25
2018-09-24T11:51:19.144Z,286.88
2018-09-24T11:52:19.156Z,298.13
2018-09-24T11:53:19.168Z,286.88
2018-09-24T11:54:19.215Z,258.75
2018-09-24T11:55:19.185Z,236.25
2018-09-24T11:56:19.232Z,208.13
2018-09-24T11:57:19.223Z,241.88
2018-09-24T11:58:19.176Z,275.63
2018-09-24T11:59:19.172Z,270.00
2018-09-24T12:00:19.500Z,258.75
2018-09-24T12:01:19.197Z,236.25
2018-09-24T12:02:19.195Z,241.88
2018-09-24T12:03:19.284Z,247.50
2018-09-24T12:04:19.161Z,230.63
2018-09-24T12:05:19.168Z,225.00
2018-09-24T12:06:19.200Z,258.75
2018-09-24T12:07:19.205Z,208.13
2018-09-24T12:08:19.200Z,185.63
2018-09-24T12:09:19.325Z,236.25
2018-09-24T12:10:19.218Z,315.00
2018-09-24T12:11:19.195Z,331.88
2018-09-24T12:12:19.227Z,326.25
2018-09-24T12:13:19.232Z,292.50
2018-09-24T12:14:19.303Z,286.88
2018-09-24T12:15:19.205Z,264.38
2018-09-24T12:16:19.213Z,174.38
2018-09-24T12:17:19.201Z,129.38
2018-09-24T12:18:19.210Z,112.50
2018-09-24T12:19:19.213Z,106.88
2018-09-24T12:20:19.215Z,101.25
2018-09-24T12:21:19.228Z,106.88
2018-09-24T12:22:19.357Z,106.88
2018-09-24T12:23:19.388Z,95.63
2018-09-24T12:24:19.328Z,90.00
2018-09-24T12:25:19.264Z,78.75
2018-09-24T12:26:19.254Z,61.88
2018-09-24T12:27:19.371Z,61.88
2018-09-24T12:28:19.307Z,78.75
2018-09-24T12:29:19.297Z,112.50
2018-09-24T12:30:19.280Z,151.88
2018-09-24T12:31:19.279Z,129.38
2018-09-24T12:32:23.810Z,129.38
2018-09-24T12:33:19.404Z,106.88
2018-09-24T12:34:19.378Z,95.63
2018-09-24T12:35:19.552Z,84.38
2018-09-24T12:36:20.110Z,78.75
2018-09-24T12:37:20.710Z,90.00
2018-09-24T12:39:51.566Z,90.00
2018-09-24T12:40:51.099Z,101.25
2018-09-24T12:42:44.805Z,101.25
2018-09-24T12:43:46.716Z,112.50
2018-09-24T12:44:44.922Z,118.13
2018-09-24T12:45:44.959Z,146.25
2018-09-24T12:46:44.651Z,180.00
2018-09-24T12:47:44.921Z,185.63
2018-09-24T12:48:44.688Z,151.88
2018-09-24T12:49:44.720Z,135.00
2018-09-24T12:50:44.661Z,118.13
2018-09-24T12:51:44.703Z,95.63
2018-09-24T12:52:44.685Z,112.50
2018-09-24T12:53:44.704Z,140.63
2018-09-24T12:54:44.722Z,106.88
2018-09-24T12:55:44.733Z,73.13
2018-09-24T12:56:44.674Z,50.63
2018-09-24T12:57:44.719Z,45.00
2018-09-24T12:58:44.707Z,39.38
2018-09-24T12:59:44.691Z,39.38
2018-09-24T13:00:44.771Z,50.63
2018-09-24T13:01:44.703Z,56.25
2018-09-24T13:02:44.754Z,50.63
2018-09-24T13:03:44.770Z,56.25
2018-09-24T13:04:45.459Z,61.88
2018-09-24T13:05:44.736Z,56.25
2018-09-24T13:06:44.747Z,45.00
2018-09-24T13:07:44.705Z,45.00